sensor_id;sensor_type;location;lat;lon;timestamp;temperature;humidity
65058;HTU21D;51644;51.068;5.860;2022-11-11T00:01:16;10.73;80.87
65058;HTU21D;51644;51.068;5.860;2022-11-11T00:02:33;10.71;80.90
65058;HTU21D;51644;51.068;5.860;2022-11-11T00:03:54;10.68;80.88
65058;HTU21D;51644;51.068;5.860;2022-11-11T00:05:12;10.70;80.84
65058;HTU21D;51644;51.068;5.860;2022-11-11T00:06:29;10.70;80.82
65058;HTU21D;51644;51.068;5.860;2022-11-11T00:07:47;10.69;80.78
65058;HTU21D;51644;51.068;5.860;2022-11-11T00:09:04;10.67;80.79
65058;HTU21D;51644;51.068;5.860;2022-11-11T00:10:21;10.66;80.86
65058;HTU21D;51644;51.068;5.860;2022-11-11T00:11:41;10.65;80.88
65058;HTU21D;51644;51.068;5.860;2022-11-11T00:13:05;10.65;80.78
65058;HTU21D;51644;51.068;5.860;2022-11-11T00:14:22;10.62;80.85
65058;HTU21D;51644;51.068;5.860;2022-11-11T00:15:39;10.58;80.94
65058;HTU21D;51644;51.068;5.860;2022-11-11T00:16:56;10.55;80.93
65058;HTU21D;51644;51.068;5.860;2022-11-11T00:18:33;10.52;81.08
65058;HTU21D;51644;51.068;5.860;2022-11-11T00:20:11;10.48;81.18
65058;HTU21D;51644;51.068;5.860;2022-11-11T00:21:46;10.49;81.20
65058;HTU21D;51644;51.068;5.860;2022-11-11T00:23:25;10.48;81.04
65058;HTU21D;51644;51.068;5.860;2022-11-11T00:25:18;10.49;81.12
65058;HTU21D;51644;51.068;5.860;2022-11-11T00:26:36;10.48;81.11
65058;HTU21D;51644;51.068;5.860;2022-11-11T00:27:53;10.44;81.33
65058;HTU21D;51644;51.068;5.860;2022-11-11T00:29:10;10.45;81.32
65058;HTU21D;51644;51.068;5.860;2022-11-11T00:30:27;10.45;81.18
65058;HTU21D;51644;51.068;5.860;2022-11-11T00:31:45;10.44;81.27
65058;HTU21D;51644;51.068;5.860;2022-11-11T00:33:24;10.41;81.33
65058;HTU21D;51644;51.068;5.860;2022-11-11T00:34:41;10.40;81.27
65058;HTU21D;51644;51.068;5.860;2022-11-11T00:36:18;10.43;81.14
65058;HTU21D;51644;51.068;5.860;2022-11-11T00:37:36;10.43;81.07
65058;HTU21D;51644;51.068;5.860;2022-11-11T00:38:53;10.41;81.08
65058;HTU21D;51644;51.068;5.860;2022-11-11T00:40:12;10.41;81.04
65058;HTU21D;51644;51.068;5.860;2022-11-11T00:41:30;10.39;80.98
65058;HTU21D;51644;51.068;5.860;2022-11-11T00:42:46;10.39;80.98
65058;HTU21D;51644;51.068;5.860;2022-11-11T00:44:04;10.39;80.99
65058;HTU21D;51644;51.068;5.860;2022-11-11T00:45:21;10.37;81.01
65058;HTU21D;51644;51.068;5.860;2022-11-11T00:46:38;10.36;81.03
65058;HTU21D;51644;51.068;5.860;2022-11-11T00:48:14;10.31;81.11
65058;HTU21D;51644;51.068;5.860;2022-11-11T00:49:50;10.31;81.16
65058;HTU21D;51644;51.068;5.860;2022-11-11T00:51:27;10.31;81.17
65058;HTU21D;51644;51.068;5.860;2022-11-11T00:52:47;10.27;81.16
65058;HTU21D;51644;51.068;5.860;2022-11-11T00:54:04;10.28;81.22
65058;HTU21D;51644;51.068;5.860;2022-11-11T00:55:21;10.25;81.33
65058;HTU21D;51644;51.068;5.860;2022-11-11T00:56:39;10.22;81.25
65058;HTU21D;51644;51.068;5.860;2022-11-11T00:57:56;10.20;81.48
65058;HTU21D;51644;51.068;5.860;2022-11-11T00:59:13;10.20;81.45
65058;HTU21D;51644;51.068;5.860;2022-11-11T01:00:31;10.21;81.36
65058;HTU21D;51644;51.068;5.860;2022-11-11T01:01:49;10.19;81.43
65058;HTU21D;51644;51.068;5.860;2022-11-11T01:03:06;10.19;81.38
65058;HTU21D;51644;51.068;5.860;2022-11-11T01:04:25;10.19;81.36
65058;HTU21D;51644;51.068;5.860;2022-11-11T01:05:43;10.18;81.36
65058;HTU21D;51644;51.068;5.860;2022-11-11T01:07:00;10.15;81.49
65058;HTU21D;51644;51.068;5.860;2022-11-11T01:08:18;10.16;81.49
65058;HTU21D;51644;51.068;5.860;2022-11-11T01:09:35;10.21;81.34
65058;HTU21D;51644;51.068;5.860;2022-11-11T01:10:53;10.18;81.32
65058;HTU21D;51644;51.068;5.860;2022-11-11T01:12:10;10.18;81.48
65058;HTU21D;51644;51.068;5.860;2022-11-11T01:13:30;10.18;81.39
65058;HTU21D;51644;51.068;5.860;2022-11-11T01:14:48;10.16;81.43
65058;HTU21D;51644;51.068;5.860;2022-11-11T01:16:08;10.16;81.44
65058;HTU21D;51644;51.068;5.860;2022-11-11T01:17:28;10.15;81.51
65058;HTU21D;51644;51.068;5.860;2022-11-11T01:18:45;10.11;81.65
65058;HTU21D;51644;51.068;5.860;2022-11-11T01:20:05;10.13;81.72
65058;HTU21D;51644;51.068;5.860;2022-11-11T01:21:24;10.14;81.56
65058;HTU21D;51644;51.068;5.860;2022-11-11T01:22:41;10.15;81.57
65058;HTU21D;51644;51.068;5.860;2022-11-11T01:24:00;10.14;81.54
65058;HTU21D;51644;51.068;5.860;2022-11-11T01:25:17;10.15;81.62
65058;HTU21D;51644;51.068;5.860;2022-11-11T01:26:34;10.13;81.65
65058;HTU21D;51644;51.068;5.860;2022-11-11T01:27:51;10.16;81.66
65058;HTU21D;51644;51.068;5.860;2022-11-11T01:29:09;10.15;81.64
65058;HTU21D;51644;51.068;5.860;2022-11-11T01:30:26;10.14;81.68
65058;HTU21D;51644;51.068;5.860;2022-11-11T01:31:44;10.15;81.67
65058;HTU21D;51644;51.068;5.860;2022-11-11T01:33:02;10.14;81.63
65058;HTU21D;51644;51.068;5.860;2022-11-11T01:34:20;10.12;81.72
65058;HTU21D;51644;51.068;5.860;2022-11-11T01:35:38;10.11;81.71
65058;HTU21D;51644;51.068;5.860;2022-11-11T01:36:55;10.08;81.87
65058;HTU21D;51644;51.068;5.860;2022-11-11T01:38:13;10.05;82.02
65058;HTU21D;51644;51.068;5.860;2022-11-11T01:39:30;10.04;82.06
65058;HTU21D;51644;51.068;5.860;2022-11-11T01:40:48;10.04;82.02
65058;HTU21D;51644;51.068;5.860;2022-11-11T01:42:05;10.03;82.09
65058;HTU21D;51644;51.068;5.860;2022-11-11T01:43:23;10.04;82.17
65058;HTU21D;51644;51.068;5.860;2022-11-11T01:44:46;9.98;82.36
65058;HTU21D;51644;51.068;5.860;2022-11-11T01:46:04;9.97;82.35
65058;HTU21D;51644;51.068;5.860;2022-11-11T01:47:21;9.98;82.30
65058;HTU21D;51644;51.068;5.860;2022-11-11T01:49:13;9.98;82.26
65058;HTU21D;51644;51.068;5.860;2022-11-11T01:50:35;9.96;82.37
65058;HTU21D;51644;51.068;5.860;2022-11-11T01:53:16;9.97;82.35
65058;HTU21D;51644;51.068;5.860;2022-11-11T01:54:53;9.94;82.53
65058;HTU21D;51644;51.068;5.860;2022-11-11T01:56:12;9.95;82.46
65058;HTU21D;51644;51.068;5.860;2022-11-11T01:57:42;9.95;82.44
65058;HTU21D;51644;51.068;5.860;2022-11-11T01:59:08;9.95;82.45
65058;HTU21D;51644;51.068;5.860;2022-11-11T02:00:27;9.94;82.46
65058;HTU21D;51644;51.068;5.860;2022-11-11T02:01:46;9.94;82.42
65058;HTU21D;51644;51.068;5.860;2022-11-11T02:03:08;9.94;82.39
65058;HTU21D;51644;51.068;5.860;2022-11-11T02:04:26;9.92;82.42
65058;HTU21D;51644;51.068;5.860;2022-11-11T02:06:02;9.89;82.48
65058;HTU21D;51644;51.068;5.860;2022-11-11T02:07:21;9.89;82.53
65058;HTU21D;51644;51.068;5.860;2022-11-11T02:08:40;9.90;82.58
65058;HTU21D;51644;51.068;5.860;2022-11-11T02:09:58;9.84;82.61
65058;HTU21D;51644;51.068;5.860;2022-11-11T02:11:21;9.82;82.91
65058;HTU21D;51644;51.068;5.860;2022-11-11T02:12:59;9.83;82.85
65058;HTU21D;51644;51.068;5.860;2022-11-11T02:14:42;9.83;82.91
65058;HTU21D;51644;51.068;5.860;2022-11-11T02:16:00;9.82;82.91
65058;HTU21D;51644;51.068;5.860;2022-11-11T02:17:19;9.81;82.94
65058;HTU21D;51644;51.068;5.860;2022-11-11T02:18:37;9.80;83.04
65058;HTU21D;51644;51.068;5.860;2022-11-11T02:19:58;9.78;83.14
65058;HTU21D;51644;51.068;5.860;2022-11-11T02:21:48;9.78;83.13
65058;HTU21D;51644;51.068;5.860;2022-11-11T02:23:22;9.78;83.19
65058;HTU21D;51644;51.068;5.860;2022-11-11T02:24:42;9.74;83.22
65058;HTU21D;51644;51.068;5.860;2022-11-11T02:26:02;9.75;83.23
65058;HTU21D;51644;51.068;5.860;2022-11-11T02:27:24;9.74;83.16
65058;HTU21D;51644;51.068;5.860;2022-11-11T02:28:42;9.71;83.15
65058;HTU21D;51644;51.068;5.860;2022-11-11T02:30:01;9.70;83.10
65058;HTU21D;51644;51.068;5.860;2022-11-11T02:31:28;9.69;83.12
65058;HTU21D;51644;51.068;5.860;2022-11-11T02:32:49;9.68;83.12
65058;HTU21D;51644;51.068;5.860;2022-11-11T02:34:06;9.65;83.16
65058;HTU21D;51644;51.068;5.860;2022-11-11T02:37:07;9.62;83.31
65058;HTU21D;51644;51.068;5.860;2022-11-11T02:38:25;9.60;83.32
65058;HTU21D;51644;51.068;5.860;2022-11-11T02:39:46;9.56;83.39
65058;HTU21D;51644;51.068;5.860;2022-11-11T02:41:04;9.55;83.42
65058;HTU21D;51644;51.068;5.860;2022-11-11T02:42:40;9.53;83.49
65058;HTU21D;51644;51.068;5.860;2022-11-11T02:43:56;9.51;83.52
65058;HTU21D;51644;51.068;5.860;2022-11-11T02:45:14;9.50;83.55
65058;HTU21D;51644;51.068;5.860;2022-11-11T02:46:31;9.48;83.59
65058;HTU21D;51644;51.068;5.860;2022-11-11T02:47:48;9.47;83.56
65058;HTU21D;51644;51.068;5.860;2022-11-11T02:49:05;9.45;83.57
65058;HTU21D;51644;51.068;5.860;2022-11-11T02:50:22;9.44;83.49
65058;HTU21D;51644;51.068;5.860;2022-11-11T02:51:39;9.41;83.42
65058;HTU21D;51644;51.068;5.860;2022-11-11T02:52:57;9.39;83.38
65058;HTU21D;51644;51.068;5.860;2022-11-11T02:54:14;9.39;83.25
65058;HTU21D;51644;51.068;5.860;2022-11-11T02:55:32;9.35;83.20
65058;HTU21D;51644;51.068;5.860;2022-11-11T02:56:49;9.33;83.26
65058;HTU21D;51644;51.068;5.860;2022-11-11T02:58:25;9.33;83.35
65058;HTU21D;51644;51.068;5.860;2022-11-11T02:59:42;9.31;83.45
65058;HTU21D;51644;51.068;5.860;2022-11-11T03:00:59;9.30;83.49
65058;HTU21D;51644;51.068;5.860;2022-11-11T03:02:16;9.27;83.58
65058;HTU21D;51644;51.068;5.860;2022-11-11T03:03:33;9.26;83.66
65058;HTU21D;51644;51.068;5.860;2022-11-11T03:04:51;9.25;83.75
65058;HTU21D;51644;51.068;5.860;2022-11-11T03:06:08;9.23;83.84
65058;HTU21D;51644;51.068;5.860;2022-11-11T03:07:25;9.23;83.88
65058;HTU21D;51644;51.068;5.860;2022-11-11T03:08:42;9.22;83.92
65058;HTU21D;51644;51.068;5.860;2022-11-11T03:09:59;9.22;83.93
65058;HTU21D;51644;51.068;5.860;2022-11-11T03:11:16;9.21;84.00
65058;HTU21D;51644;51.068;5.860;2022-11-11T03:12:43;9.19;84.02
65058;HTU21D;51644;51.068;5.860;2022-11-11T03:14:01;9.17;84.07
65058;HTU21D;51644;51.068;5.860;2022-11-11T03:15:18;9.17;84.08
65058;HTU21D;51644;51.068;5.860;2022-11-11T03:16:35;9.17;84.09
65058;HTU21D;51644;51.068;5.860;2022-11-11T03:18:11;9.16;84.03
65058;HTU21D;51644;51.068;5.860;2022-11-11T03:19:28;9.16;83.97
65058;HTU21D;51644;51.068;5.860;2022-11-11T03:20:45;9.15;83.95
65058;HTU21D;51644;51.068;5.860;2022-11-11T03:22:22;9.12;84.02
65058;HTU21D;51644;51.068;5.860;2022-11-11T03:23:39;9.11;84.06
65058;HTU21D;51644;51.068;5.860;2022-11-11T03:24:56;9.11;84.14
65058;HTU21D;51644;51.068;5.860;2022-11-11T03:26:32;9.10;84.22
65058;HTU21D;51644;51.068;5.860;2022-11-11T03:27:49;9.09;84.35
65058;HTU21D;51644;51.068;5.860;2022-11-11T03:29:06;9.08;84.34
65058;HTU21D;51644;51.068;5.860;2022-11-11T03:30:23;9.09;84.42
65058;HTU21D;51644;51.068;5.860;2022-11-11T03:31:41;9.06;84.45
65058;HTU21D;51644;51.068;5.860;2022-11-11T03:33:00;9.08;84.50
65058;HTU21D;51644;51.068;5.860;2022-11-11T03:34:17;9.09;84.53
65058;HTU21D;51644;51.068;5.860;2022-11-11T03:35:35;9.07;84.61
65058;HTU21D;51644;51.068;5.860;2022-11-11T03:36:52;9.07;84.61
65058;HTU21D;51644;51.068;5.860;2022-11-11T03:38:28;9.06;84.66
65058;HTU21D;51644;51.068;5.860;2022-11-11T03:39:46;9.06;84.63
65058;HTU21D;51644;51.068;5.860;2022-11-11T03:41:03;9.04;84.61
65058;HTU21D;51644;51.068;5.860;2022-11-11T03:42:20;9.03;84.64
65058;HTU21D;51644;51.068;5.860;2022-11-11T03:43:37;9.01;84.62
65058;HTU21D;51644;51.068;5.860;2022-11-11T03:44:54;9.02;84.69
65058;HTU21D;51644;51.068;5.860;2022-11-11T03:46:11;8.98;84.71
65058;HTU21D;51644;51.068;5.860;2022-11-11T03:47:28;8.96;84.74
65058;HTU21D;51644;51.068;5.860;2022-11-11T03:48:45;8.96;84.76
65058;HTU21D;51644;51.068;5.860;2022-11-11T03:50:03;8.95;84.81
65058;HTU21D;51644;51.068;5.860;2022-11-11T03:51:20;8.95;84.81
65058;HTU21D;51644;51.068;5.860;2022-11-11T03:52:41;8.94;84.84
65058;HTU21D;51644;51.068;5.860;2022-11-11T03:54:01;8.95;84.81
65058;HTU21D;51644;51.068;5.860;2022-11-11T03:55:18;8.93;84.84
65058;HTU21D;51644;51.068;5.860;2022-11-11T03:56:36;8.93;84.84
65058;HTU21D;51644;51.068;5.860;2022-11-11T03:57:54;8.93;84.80
65058;HTU21D;51644;51.068;5.860;2022-11-11T03:59:12;8.91;84.75
65058;HTU21D;51644;51.068;5.860;2022-11-11T04:00:29;8.90;84.75
65058;HTU21D;51644;51.068;5.860;2022-11-11T04:01:45;8.89;84.75
65058;HTU21D;51644;51.068;5.860;2022-11-11T04:03:32;8.87;84.76
65058;HTU21D;51644;51.068;5.860;2022-11-11T04:05:08;8.85;84.87
65058;HTU21D;51644;51.068;5.860;2022-11-11T04:06:44;8.83;84.86
65058;HTU21D;51644;51.068;5.860;2022-11-11T04:08:21;8.81;84.84
65058;HTU21D;51644;51.068;5.860;2022-11-11T04:09:57;8.80;84.73
65058;HTU21D;51644;51.068;5.860;2022-11-11T04:11:40;8.79;84.59
65058;HTU21D;51644;51.068;5.860;2022-11-11T04:12:59;8.78;84.48
65058;HTU21D;51644;51.068;5.860;2022-11-11T04:14:35;8.77;84.33
65058;HTU21D;51644;51.068;5.860;2022-11-11T04:16:11;8.73;84.21
65058;HTU21D;51644;51.068;5.860;2022-11-11T04:17:28;8.74;84.15
65058;HTU21D;51644;51.068;5.860;2022-11-11T04:18:45;8.71;84.07
65058;HTU21D;51644;51.068;5.860;2022-11-11T04:20:21;8.71;83.92
65058;HTU21D;51644;51.068;5.860;2022-11-11T04:21:57;8.68;83.80
65058;HTU21D;51644;51.068;5.860;2022-11-11T04:23:15;8.66;83.76
65058;HTU21D;51644;51.068;5.860;2022-11-11T04:24:32;8.66;83.75
65058;HTU21D;51644;51.068;5.860;2022-11-11T04:26:08;8.64;83.70
65058;HTU21D;51644;51.068;5.860;2022-11-11T04:27:25;8.62;83.65
65058;HTU21D;51644;51.068;5.860;2022-11-11T04:28:42;8.62;83.55
65058;HTU21D;51644;51.068;5.860;2022-11-11T04:30:18;8.59;83.53
65058;HTU21D;51644;51.068;5.860;2022-11-11T04:31:36;8.58;83.53
65058;HTU21D;51644;51.068;5.860;2022-11-11T04:32:53;8.58;83.63
65058;HTU21D;51644;51.068;5.860;2022-11-11T04:34:10;8.59;83.71
65058;HTU21D;51644;51.068;5.860;2022-11-11T04:35:27;8.59;83.75
65058;HTU21D;51644;51.068;5.860;2022-11-11T04:36:44;8.60;83.81
65058;HTU21D;51644;51.068;5.860;2022-11-11T04:38:01;8.60;83.80
65058;HTU21D;51644;51.068;5.860;2022-11-11T04:39:37;8.59;83.67
65058;HTU21D;51644;51.068;5.860;2022-11-11T04:41:13;8.56;83.49
65058;HTU21D;51644;51.068;5.860;2022-11-11T04:42:31;8.53;83.41
65058;HTU21D;51644;51.068;5.860;2022-11-11T04:43:49;8.51;83.31
65058;HTU21D;51644;51.068;5.860;2022-11-11T04:45:24;8.47;83.19
65058;HTU21D;51644;51.068;5.860;2022-11-11T04:46:46;8.44;83.20
65058;HTU21D;51644;51.068;5.860;2022-11-11T04:48:07;8.43;83.24
65058;HTU21D;51644;51.068;5.860;2022-11-11T04:49:24;8.42;83.24
65058;HTU21D;51644;51.068;5.860;2022-11-11T04:50:42;8.41;83.28
65058;HTU21D;51644;51.068;5.860;2022-11-11T04:52:00;8.41;83.32
65058;HTU21D;51644;51.068;5.860;2022-11-11T04:53:38;8.41;83.37
65058;HTU21D;51644;51.068;5.860;2022-11-11T04:54:57;8.39;83.49
65058;HTU21D;51644;51.068;5.860;2022-11-11T04:56:34;8.41;83.65
65058;HTU21D;51644;51.068;5.860;2022-11-11T04:58:07;8.42;83.61
65058;HTU21D;51644;51.068;5.860;2022-11-11T04:59:25;8.39;83.47
65058;HTU21D;51644;51.068;5.860;2022-11-11T05:00:42;8.38;83.39
65058;HTU21D;51644;51.068;5.860;2022-11-11T05:01:59;8.37;83.39
65058;HTU21D;51644;51.068;5.860;2022-11-11T05:03:34;8.38;83.50
65058;HTU21D;51644;51.068;5.860;2022-11-11T05:04:51;8.38;83.57
65058;HTU21D;51644;51.068;5.860;2022-11-11T05:06:09;8.39;83.65
65058;HTU21D;51644;51.068;5.860;2022-11-11T05:07:45;8.42;83.71
65058;HTU21D;51644;51.068;5.860;2022-11-11T05:09:21;8.41;83.65
65058;HTU21D;51644;51.068;5.860;2022-11-11T05:10:38;8.42;83.72
65058;HTU21D;51644;51.068;5.860;2022-11-11T05:11:55;8.39;83.72
65058;HTU21D;51644;51.068;5.860;2022-11-11T05:13:12;8.39;83.73
65058;HTU21D;51644;51.068;5.860;2022-11-11T05:14:48;8.37;83.76
65058;HTU21D;51644;51.068;5.860;2022-11-11T05:16:28;8.35;83.70
65058;HTU21D;51644;51.068;5.860;2022-11-11T05:18:04;8.34;83.63
65058;HTU21D;51644;51.068;5.860;2022-11-11T05:19:41;8.32;83.49
65058;HTU21D;51644;51.068;5.860;2022-11-11T05:21:21;8.29;83.45
65058;HTU21D;51644;51.068;5.860;2022-11-11T05:22:41;8.26;83.31
65058;HTU21D;51644;51.068;5.860;2022-11-11T05:23:58;8.23;83.28
65058;HTU21D;51644;51.068;5.860;2022-11-11T05:25:34;8.20;83.23
65058;HTU21D;51644;51.068;5.860;2022-11-11T05:26:52;8.18;83.32
65058;HTU21D;51644;51.068;5.860;2022-11-11T05:28:09;8.19;83.36
65058;HTU21D;51644;51.068;5.860;2022-11-11T05:29:26;8.17;83.31
65058;HTU21D;51644;51.068;5.860;2022-11-11T05:30:43;8.16;83.26
65058;HTU21D;51644;51.068;5.860;2022-11-11T05:32:00;8.14;83.17
65058;HTU21D;51644;51.068;5.860;2022-11-11T05:33:18;8.11;83.21
65058;HTU21D;51644;51.068;5.860;2022-11-11T05:34:38;8.11;83.25
65058;HTU21D;51644;51.068;5.860;2022-11-11T05:35:55;8.09;83.37
65058;HTU21D;51644;51.068;5.860;2022-11-11T05:37:13;8.11;83.49
65058;HTU21D;51644;51.068;5.860;2022-11-11T05:38:30;8.11;83.55
65058;HTU21D;51644;51.068;5.860;2022-11-11T05:39:47;8.12;83.64
65058;HTU21D;51644;51.068;5.860;2022-11-11T05:41:05;8.12;83.71
65058;HTU21D;51644;51.068;5.860;2022-11-11T05:42:22;8.09;83.71
65058;HTU21D;51644;51.068;5.860;2022-11-11T05:43:39;8.11;83.74
65058;HTU21D;51644;51.068;5.860;2022-11-11T05:44:57;8.13;83.71
65058;HTU21D;51644;51.068;5.860;2022-11-11T05:46:14;8.13;83.64
65058;HTU21D;51644;51.068;5.860;2022-11-11T05:47:31;8.12;83.48
65058;HTU21D;51644;51.068;5.860;2022-11-11T05:48:48;8.11;83.30
65058;HTU21D;51644;51.068;5.860;2022-11-11T05:50:24;8.07;83.21
65058;HTU21D;51644;51.068;5.860;2022-11-11T05:51:42;8.06;83.16
65058;HTU21D;51644;51.068;5.860;2022-11-11T05:52:59;8.04;83.09
65058;HTU21D;51644;51.068;5.860;2022-11-11T05:54:16;8.01;83.01
65058;HTU21D;51644;51.068;5.860;2022-11-11T05:55:33;7.99;82.98
65058;HTU21D;51644;51.068;5.860;2022-11-11T05:56:51;7.97;82.97
65058;HTU21D;51644;51.068;5.860;2022-11-11T05:58:08;7.94;83.00
65058;HTU21D;51644;51.068;5.860;2022-11-11T05:59:26;7.93;83.06
65058;HTU21D;51644;51.068;5.860;2022-11-11T06:00:44;7.92;83.07
65058;HTU21D;51644;51.068;5.860;2022-11-11T06:02:01;7.89;83.05
65058;HTU21D;51644;51.068;5.860;2022-11-11T06:03:18;7.88;83.08
65058;HTU21D;51644;51.068;5.860;2022-11-11T06:04:35;7.87;83.15
65058;HTU21D;51644;51.068;5.860;2022-11-11T06:05:52;7.88;83.24
65058;HTU21D;51644;51.068;5.860;2022-11-11T06:07:10;7.89;83.26
65058;HTU21D;51644;51.068;5.860;2022-11-11T06:08:27;7.88;83.18
65058;HTU21D;51644;51.068;5.860;2022-11-11T06:09:44;7.88;83.10
65058;HTU21D;51644;51.068;5.860;2022-11-11T06:11:01;7.86;83.04
65058;HTU21D;51644;51.068;5.860;2022-11-11T06:12:18;7.84;82.98
65058;HTU21D;51644;51.068;5.860;2022-11-11T06:13:36;7.79;82.97
65058;HTU21D;51644;51.068;5.860;2022-11-11T06:14:53;7.81;82.99
65058;HTU21D;51644;51.068;5.860;2022-11-11T06:16:10;7.77;83.02
65058;HTU21D;51644;51.068;5.860;2022-11-11T06:17:28;7.77;83.05
65058;HTU21D;51644;51.068;5.860;2022-11-11T06:18:45;7.75;83.04
65058;HTU21D;51644;51.068;5.860;2022-11-11T06:20:02;7.74;83.07
65058;HTU21D;51644;51.068;5.860;2022-11-11T06:21:22;7.73;83.05
65058;HTU21D;51644;51.068;5.860;2022-11-11T06:22:39;7.71;83.08
65058;HTU21D;51644;51.068;5.860;2022-11-11T06:24:14;7.70;83.16
65058;HTU21D;51644;51.068;5.860;2022-11-11T06:25:33;7.71;83.16
65058;HTU21D;51644;51.068;5.860;2022-11-11T06:27:09;7.70;83.07
65058;HTU21D;51644;51.068;5.860;2022-11-11T06:28:26;7.69;83.03
65058;HTU21D;51644;51.068;5.860;2022-11-11T06:29:43;7.69;82.97
65058;HTU21D;51644;51.068;5.860;2022-11-11T06:31:01;7.68;82.90
65058;HTU21D;51644;51.068;5.860;2022-11-11T06:32:18;7.65;82.91
65058;HTU21D;51644;51.068;5.860;2022-11-11T06:33:37;7.67;82.97
65058;HTU21D;51644;51.068;5.860;2022-11-11T06:34:54;7.65;82.95
65058;HTU21D;51644;51.068;5.860;2022-11-11T06:36:14;7.63;82.96
65058;HTU21D;51644;51.068;5.860;2022-11-11T06:37:31;7.63;82.94
65058;HTU21D;51644;51.068;5.860;2022-11-11T06:38:48;7.62;82.95
65058;HTU21D;51644;51.068;5.860;2022-11-11T06:40:06;7.61;82.95
65058;HTU21D;51644;51.068;5.860;2022-11-11T06:41:23;7.60;82.90
65058;HTU21D;51644;51.068;5.860;2022-11-11T06:42:41;7.59;82.97
65058;HTU21D;51644;51.068;5.860;2022-11-11T06:43:58;7.59;82.96
65058;HTU21D;51644;51.068;5.860;2022-11-11T06:45:16;7.59;83.01
65058;HTU21D;51644;51.068;5.860;2022-11-11T06:46:33;7.58;83.00
65058;HTU21D;51644;51.068;5.860;2022-11-11T06:47:50;7.57;83.02
65058;HTU21D;51644;51.068;5.860;2022-11-11T06:49:07;7.59;83.06
65058;HTU21D;51644;51.068;5.860;2022-11-11T06:50:25;7.58;83.04
65058;HTU21D;51644;51.068;5.860;2022-11-11T06:51:42;7.58;83.01
65058;HTU21D;51644;51.068;5.860;2022-11-11T06:53:07;7.59;83.00
65058;HTU21D;51644;51.068;5.860;2022-11-11T06:54:24;7.60;83.00
65058;HTU21D;51644;51.068;5.860;2022-11-11T06:55:42;7.61;83.02
65058;HTU21D;51644;51.068;5.860;2022-11-11T06:56:59;7.64;83.01
65058;HTU21D;51644;51.068;5.860;2022-11-11T06:58:18;7.64;83.00
65058;HTU21D;51644;51.068;5.860;2022-11-11T06:59:35;7.70;82.96
65058;HTU21D;51644;51.068;5.860;2022-11-11T07:00:53;7.73;82.99
65058;HTU21D;51644;51.068;5.860;2022-11-11T07:02:13;7.75;82.98
65058;HTU21D;51644;51.068;5.860;2022-11-11T07:03:31;7.78;83.01
65058;HTU21D;51644;51.068;5.860;2022-11-11T07:04:48;7.82;83.02
65058;HTU21D;51644;51.068;5.860;2022-11-11T07:06:05;7.86;83.00
65058;HTU21D;51644;51.068;5.860;2022-11-11T07:07:22;7.88;82.97
65058;HTU21D;51644;51.068;5.860;2022-11-11T07:08:40;7.92;82.91
65058;HTU21D;51644;51.068;5.860;2022-11-11T07:10:00;7.96;82.82
65058;HTU21D;51644;51.068;5.860;2022-11-11T07:11:18;8.00;82.83
65058;HTU21D;51644;51.068;5.860;2022-11-11T07:12:35;8.03;82.75
65058;HTU21D;51644;51.068;5.860;2022-11-11T07:13:52;8.05;82.67
65058;HTU21D;51644;51.068;5.860;2022-11-11T07:15:10;8.07;82.53
65058;HTU21D;51644;51.068;5.860;2022-11-11T07:16:28;8.09;82.42
65058;HTU21D;51644;51.068;5.860;2022-11-11T07:17:45;8.12;82.39
65058;HTU21D;51644;51.068;5.860;2022-11-11T07:19:02;8.15;82.36
65058;HTU21D;51644;51.068;5.860;2022-11-11T07:20:19;8.17;82.30
65058;HTU21D;51644;51.068;5.860;2022-11-11T07:21:37;8.21;82.30
65058;HTU21D;51644;51.068;5.860;2022-11-11T07:22:54;8.23;82.28
65058;HTU21D;51644;51.068;5.860;2022-11-11T07:24:11;8.28;82.23
65058;HTU21D;51644;51.068;5.860;2022-11-11T07:25:28;8.32;82.15
65058;HTU21D;51644;51.068;5.860;2022-11-11T07:26:46;8.37;82.09
65058;HTU21D;51644;51.068;5.860;2022-11-11T07:28:03;8.41;82.03
65058;HTU21D;51644;51.068;5.860;2022-11-11T07:29:20;8.45;81.90
65058;HTU21D;51644;51.068;5.860;2022-11-11T07:30:38;8.47;81.78
65058;HTU21D;51644;51.068;5.860;2022-11-11T07:31:55;8.51;81.73
65058;HTU21D;51644;51.068;5.860;2022-11-11T07:33:12;8.57;81.68
65058;HTU21D;51644;51.068;5.860;2022-11-11T07:34:30;8.62;81.61
65058;HTU21D;51644;51.068;5.860;2022-11-11T07:35:47;8.67;81.52
65058;HTU21D;51644;51.068;5.860;2022-11-11T07:37:04;8.74;81.46
65058;HTU21D;51644;51.068;5.860;2022-11-11T07:38:21;8.78;81.42
65058;HTU21D;51644;51.068;5.860;2022-11-11T07:39:39;8.83;81.29
65058;HTU21D;51644;51.068;5.860;2022-11-11T07:40:56;8.89;81.24
65058;HTU21D;51644;51.068;5.860;2022-11-11T07:42:13;8.95;81.15
65058;HTU21D;51644;51.068;5.860;2022-11-11T07:43:31;9.03;81.07
65058;HTU21D;51644;51.068;5.860;2022-11-11T07:44:48;9.08;80.96
65058;HTU21D;51644;51.068;5.860;2022-11-11T07:46:05;9.15;80.86
65058;HTU21D;51644;51.068;5.860;2022-11-11T07:47:22;9.20;80.71
65058;HTU21D;51644;51.068;5.860;2022-11-11T07:48:39;9.26;80.71
65058;HTU21D;51644;51.068;5.860;2022-11-11T07:49:56;9.34;80.69
65058;HTU21D;51644;51.068;5.860;2022-11-11T07:51:13;9.41;80.62
65058;HTU21D;51644;51.068;5.860;2022-11-11T07:52:31;9.49;80.54
65058;HTU21D;51644;51.068;5.860;2022-11-11T07:53:49;9.56;80.41
65058;HTU21D;51644;51.068;5.860;2022-11-11T07:55:06;9.66;80.34
65058;HTU21D;51644;51.068;5.860;2022-11-11T07:56:24;9.74;80.20
65058;HTU21D;51644;51.068;5.860;2022-11-11T07:57:41;9.85;80.09
65058;HTU21D;51644;51.068;5.860;2022-11-11T07:58:58;9.96;80.02
65058;HTU21D;51644;51.068;5.860;2022-11-11T08:00:15;10.07;79.95
65058;HTU21D;51644;51.068;5.860;2022-11-11T08:01:33;10.20;79.93
65058;HTU21D;51644;51.068;5.860;2022-11-11T08:02:53;10.36;79.73
65058;HTU21D;51644;51.068;5.860;2022-11-11T08:04:10;10.53;79.48
65058;HTU21D;51644;51.068;5.860;2022-11-11T08:05:27;10.70;79.10
65058;HTU21D;51644;51.068;5.860;2022-11-11T08:06:44;10.83;78.58
65058;HTU21D;51644;51.068;5.860;2022-11-11T08:08:03;10.96;78.11
65058;HTU21D;51644;51.068;5.860;2022-11-11T08:09:21;11.07;77.62
65058;HTU21D;51644;51.068;5.860;2022-11-11T08:10:38;11.13;77.22
65058;HTU21D;51644;51.068;5.860;2022-11-11T08:11:55;11.22;76.92
65058;HTU21D;51644;51.068;5.860;2022-11-11T08:13:32;11.27;76.60
65058;HTU21D;51644;51.068;5.860;2022-11-11T08:14:59;11.40;76.60
65058;HTU21D;51644;51.068;5.860;2022-11-11T08:16:16;11.52;76.41
65058;HTU21D;51644;51.068;5.860;2022-11-11T08:17:38;11.60;75.94
65058;HTU21D;51644;51.068;5.860;2022-11-11T08:18:55;11.68;75.27
65058;HTU21D;51644;51.068;5.860;2022-11-11T08:20:14;11.68;74.42
65058;HTU21D;51644;51.068;5.860;2022-11-11T08:21:31;11.72;74.69
65058;HTU21D;51644;51.068;5.860;2022-11-11T08:22:49;11.85;74.83
65058;HTU21D;51644;51.068;5.860;2022-11-11T08:24:10;11.96;74.28
65058;HTU21D;51644;51.068;5.860;2022-11-11T08:25:28;12.08;74.20
65058;HTU21D;51644;51.068;5.860;2022-11-11T08:26:46;12.18;73.65
65058;HTU21D;51644;51.068;5.860;2022-11-11T08:28:04;12.29;73.47
65058;HTU21D;51644;51.068;5.860;2022-11-11T08:29:21;12.32;72.90
65058;HTU21D;51644;51.068;5.860;2022-11-11T08:30:38;12.34;72.38
65058;HTU21D;51644;51.068;5.860;2022-11-11T08:31:55;12.41;72.36